sensor_id;sensor_type;location;lat;lon;timestamp;pressure;altitude;pressure_sealevel;temperature;humidity
26436;BME280;15351;52.408;16.826;2023-08-06T00:00:19;99982.98;;;19.22;78.86
26436;BME280;15351;52.408;16.826;2023-08-06T00:03:24;99991.02;;;19.22;79.12
26436;BME280;15351;52.408;16.826;2023-08-06T00:05:51;99994.75;;;19.23;79.05
26436;BME280;15351;52.408;16.826;2023-08-06T00:08:17;99985.08;;;19.20;79.09
26436;BME280;15351;52.408;16.826;2023-08-06T00:10:49;99958.15;;;19.20;79.14
26436;BME280;15351;52.408;16.826;2023-08-06T00:13:17;99956.28;;;19.19;79.08
26436;BME280;15351;52.408;16.826;2023-08-06T00:15:53;99964.66;;;19.17;79.15
26436;BME280;15351;52.408;16.826;2023-08-06T00:18:40;99959.56;;;19.17;79.43
26436;BME280;15351;52.408;16.826;2023-08-06T00:21:08;99959.16;;;19.18;79.28
26436;BME280;15351;52.408;16.826;2023-08-06T00:23:35;99957.90;;;19.18;79.22
26436;BME280;15351;52.408;16.826;2023-08-06T00:26:03;99955.98;;;19.18;79.22
26436;BME280;15351;52.408;16.826;2023-08-06T00:28:33;99952.45;;;19.17;79.29
26436;BME280;15351;52.408;16.826;2023-08-06T00:30:59;99947.55;;;19.18;79.25
26436;BME280;15351;52.408;16.826;2023-08-06T00:33:37;99943.80;;;19.18;79.27
26436;BME280;15351;52.408;16.826;2023-08-06T00:36:04;99939.98;;;19.17;79.12
26436;BME280;15351;52.408;16.826;2023-08-06T00:38:30;99926.20;;;19.17;79.33
26436;BME280;15351;52.408;16.826;2023-08-06T00:40:59;99917.98;;;19.17;79.19
26436;BME280;15351;52.408;16.826;2023-08-06T00:43:26;99909.90;;;19.17;79.17
26436;BME280;15351;52.408;16.826;2023-08-06T00:45:53;99906.54;;;19.16;79.32
26436;BME280;15351;52.408;16.826;2023-08-06T00:48:19;99899.13;;;19.14;79.29
26436;BME280;15351;52.408;16.826;2023-08-06T00:50:46;99892.77;;;19.13;79.36
26436;BME280;15351;52.408;16.826;2023-08-06T00:53:14;99893.47;;;19.13;79.37
26436;BME280;15351;52.408;16.826;2023-08-06T00:55:43;99889.70;;;19.14;79.45
26436;BME280;15351;52.408;16.826;2023-08-06T00:58:10;99880.58;;;19.14;79.43
26436;BME280;15351;52.408;16.826;2023-08-06T01:00:41;99871.84;;;19.15;79.68
26436;BME280;15351;52.408;16.826;2023-08-06T01:03:08;99870.47;;;19.17;79.41
26436;BME280;15351;52.408;16.826;2023-08-06T01:05:35;99857.25;;;19.16;79.46
26436;BME280;15351;52.408;16.826;2023-08-06T01:11:33;99840.17;;;19.15;79.56
26436;BME280;15351;52.408;16.826;2023-08-06T01:13:43;99832.20;;;19.16;79.47
26436;BME280;15351;52.408;16.826;2023-08-06T01:16:17;99826.95;;;19.16;79.68
26436;BME280;15351;52.408;16.826;2023-08-06T01:18:47;99821.46;;;19.15;79.54
26436;BME280;15351;52.408;16.826;2023-08-06T01:21:18;99817.15;;;19.16;79.80
26436;BME280;15351;52.408;16.826;2023-08-06T01:23:59;99814.05;;;19.17;79.83
26436;BME280;15351;52.408;16.826;2023-08-06T01:27:06;99810.01;;;19.17;79.78
26436;BME280;15351;52.408;16.826;2023-08-06T01:29:40;99804.23;;;19.21;79.83
26436;BME280;15351;52.408;16.826;2023-08-06T01:32:11;99791.84;;;19.20;79.74
26436;BME280;15351;52.408;16.826;2023-08-06T01:34:57;99782.77;;;19.21;79.87
26436;BME280;15351;52.408;16.826;2023-08-06T01:37:27;99778.30;;;19.21;79.76
26436;BME280;15351;52.408;16.826;2023-08-06T01:39:55;99780.96;;;19.21;79.64
26436;BME280;15351;52.408;16.826;2023-08-06T01:42:41;99780.88;;;19.22;79.48
26436;BME280;15351;52.408;16.826;2023-08-06T01:45:10;99779.94;;;19.21;79.58
26436;BME280;15351;52.408;16.826;2023-08-06T01:47:40;99777.96;;;19.21;79.56
26436;BME280;15351;52.408;16.826;2023-08-06T01:50:11;99769.89;;;19.19;79.68
26436;BME280;15351;52.408;16.826;2023-08-06T01:52:54;99760.31;;;19.19;79.66
26436;BME280;15351;52.408;16.826;2023-08-06T01:55:23;99762.50;;;19.22;79.63
26436;BME280;15351;52.408;16.826;2023-08-06T01:57:52;99752.34;;;19.23;79.62
26436;BME280;15351;52.408;16.826;2023-08-06T02:00:40;99749.38;;;19.20;79.50
26436;BME280;15351;52.408;16.826;2023-08-06T02:03:07;99746.84;;;19.18;79.72
26436;BME280;15351;52.408;16.826;2023-08-06T02:05:46;99737.10;;;19.18;79.82
26436;BME280;15351;52.408;16.826;2023-08-06T02:08:13;99722.50;;;19.18;79.81
26436;BME280;15351;52.408;16.826;2023-08-06T02:11:06;99711.85;;;19.15;79.72
26436;BME280;15351;52.408;16.826;2023-08-06T02:13:59;99696.36;;;19.15;79.88
26436;BME280;15351;52.408;16.826;2023-08-06T02:16:34;99692.38;;;19.16;79.85
26436;BME280;15351;52.408;16.826;2023-08-06T02:19:11;99693.79;;;19.15;79.72
26436;BME280;15351;52.408;16.826;2023-08-06T02:21:53;99692.47;;;19.11;79.70
26436;BME280;15351;52.408;16.826;2023-08-06T02:24:21;99690.55;;;19.08;79.73
26436;BME280;15351;52.408;16.826;2023-08-06T02:26:57;99681.66;;;19.05;79.79
26436;BME280;15351;52.408;16.826;2023-08-06T02:29:29;99676.73;;;19.04;79.83
26436;BME280;15351;52.408;16.826;2023-08-06T02:35:14;99653.05;;;19.04;79.99
26436;BME280;15351;52.408;16.826;2023-08-06T02:38:01;99647.52;;;19.03;79.91
26436;BME280;15351;52.408;16.826;2023-08-06T02:40:31;99640.02;;;19.03;80.05
26436;BME280;15351;52.408;16.826;2023-08-06T02:43:09;99628.08;;;19.05;80.00
26436;BME280;15351;52.408;16.826;2023-08-06T02:46:05;99619.94;;;19.05;80.02
26436;BME280;15351;52.408;16.826;2023-08-06T02:48:32;99617.73;;;19.04;80.10
26436;BME280;15351;52.408;16.826;2023-08-06T02:51:05;99608.48;;;19.01;79.98
26436;BME280;15351;52.408;16.826;2023-08-06T02:53:35;99599.48;;;18.98;79.92
26436;BME280;15351;52.408;16.826;2023-08-06T02:56:05;99593.19;;;18.98;79.94
26436;BME280;15351;52.408;16.826;2023-08-06T02:58:45;99587.86;;;18.96;80.02
26436;BME280;15351;52.408;16.826;2023-08-06T03:01:51;99579.39;;;18.93;80.03
26436;BME280;15351;52.408;16.826;2023-08-06T03:04:33;99573.04;;;18.93;80.05
26436;BME280;15351;52.408;16.826;2023-08-06T03:06:59;99560.96;;;18.91;80.29
26436;BME280;15351;52.408;16.826;2023-08-06T03:09:31;99550.28;;;18.86;80.23
26436;BME280;15351;52.408;16.826;2023-08-06T03:12:22;99546.36;;;18.87;80.32
26436;BME280;15351;52.408;16.826;2023-08-06T03:15:11;99540.41;;;18.84;79.99
26436;BME280;15351;52.408;16.826;2023-08-06T03:18:22;99537.61;;;18.83;80.34
26436;BME280;15351;52.408;16.826;2023-08-06T03:20:52;99518.40;;;18.82;80.46
26436;BME280;15351;52.408;16.826;2023-08-06T03:23:38;99503.84;;;18.80;80.40
26436;BME280;15351;52.408;16.826;2023-08-06T03:26:23;99498.70;;;18.80;80.33
26436;BME280;15351;52.408;16.826;2023-08-06T03:28:55;99504.14;;;18.82;80.48
26436;BME280;15351;52.408;16.826;2023-08-06T03:31:33;99495.59;;;18.84;80.31
26436;BME280;15351;52.408;16.826;2023-08-06T03:37:03;99485.27;;;18.85;80.27
26436;BME280;15351;52.408;16.826;2023-08-06T03:39:41;99479.84;;;18.84;80.22
26436;BME280;15351;52.408;16.826;2023-08-06T03:42:24;99477.20;;;18.84;80.12
26436;BME280;15351;52.408;16.826;2023-08-06T03:44:50;99471.48;;;18.84;80.03
26436;BME280;15351;52.408;16.826;2023-08-06T03:47:36;99462.64;;;18.86;80.18
26436;BME280;15351;52.408;16.826;2023-08-06T03:50:07;99447.27;;;18.84;80.13
26436;BME280;15351;52.408;16.826;2023-08-06T03:52:36;99440.00;;;18.81;79.92
26436;BME280;15351;52.408;16.826;2023-08-06T03:56:00;99434.70;;;18.77;80.19
26436;BME280;15351;52.408;16.826;2023-08-06T03:58:39;99446.02;;;18.74;80.18
26436;BME280;15351;52.408;16.826;2023-08-06T04:01:19;99456.16;;;18.73;80.01
26436;BME280;15351;52.408;16.826;2023-08-06T04:03:47;99467.31;;;18.73;80.37
26436;BME280;15351;52.408;16.826;2023-08-06T04:06:14;99465.69;;;18.74;80.15
26436;BME280;15351;52.408;16.826;2023-08-06T04:08:51;99468.83;;;18.75;80.37
26436;BME280;15351;52.408;16.826;2023-08-06T04:11:20;99466.89;;;18.77;80.38
26436;BME280;15351;52.408;16.826;2023-08-06T04:13:50;99460.03;;;18.76;80.43
26436;BME280;15351;52.408;16.826;2023-08-06T04:16:27;99452.00;;;18.72;80.05
26436;BME280;15351;52.408;16.826;2023-08-06T04:19:13;99449.20;;;18.71;80.21
26436;BME280;15351;52.408;16.826;2023-08-06T04:21:43;99445.45;;;18.73;79.95
26436;BME280;15351;52.408;16.826;2023-08-06T04:24:15;99439.81;;;18.72;80.07
26436;BME280;15351;52.408;16.826;2023-08-06T04:26:56;99437.27;;;18.69;80.10
26436;BME280;15351;52.408;16.826;2023-08-06T04:29:35;99440.92;;;18.69;80.17
26436;BME280;15351;52.408;16.826;2023-08-06T04:32:10;99446.63;;;18.71;80.29
26436;BME280;15351;52.408;16.826;2023-08-06T04:34:49;99458.52;;;18.74;80.34
26436;BME280;15351;52.408;16.826;2023-08-06T04:37:28;99472.33;;;18.75;80.32
26436;BME280;15351;52.408;16.826;2023-08-06T04:40:08;99478.92;;;18.77;80.37
26436;BME280;15351;52.408;16.826;2023-08-06T04:42:55;99474.58;;;18.78;80.57
26436;BME280;15351;52.408;16.826;2023-08-06T04:45:22;99461.20;;;18.81;80.60
26436;BME280;15351;52.408;16.826;2023-08-06T04:48:29;99455.39;;;18.83;80.61
26436;BME280;15351;52.408;16.826;2023-08-06T04:50:55;99446.81;;;18.84;80.34
26436;BME280;15351;52.408;16.826;2023-08-06T04:53:47;99447.21;;;18.81;80.40
26436;BME280;15351;52.408;16.826;2023-08-06T04:56:14;99454.48;;;18.81;80.27
26436;BME280;15351;52.408;16.826;2023-08-06T04:58:40;99461.85;;;18.80;80.20
26436;BME280;15351;52.408;16.826;2023-08-06T05:01:10;99472.35;;;18.79;80.37
26436;BME280;15351;52.408;16.826;2023-08-06T05:03:59;99474.53;;;18.76;80.24
26436;BME280;15351;52.408;16.826;2023-08-06T05:06:25;99482.18;;;18.72;80.23
26436;BME280;15351;52.408;16.826;2023-08-06T05:09:23;99478.48;;;18.71;80.35
26436;BME280;15351;52.408;16.826;2023-08-06T05:12:41;99471.16;;;18.70;80.34
26436;BME280;15351;52.408;16.826;2023-08-06T05:15:18;99458.65;;;18.71;80.33
26436;BME280;15351;52.408;16.826;2023-08-06T05:21:00;99423.21;;;18.65;80.51
26436;BME280;15351;52.408;16.826;2023-08-06T05:23:33;99403.92;;;18.62;80.31
26436;BME280;15351;52.408;16.826;2023-08-06T05:25:59;99383.70;;;18.59;80.44
26436;BME280;15351;52.408;16.826;2023-08-06T05:28:54;99386.98;;;18.54;80.18
26436;BME280;15351;52.408;16.826;2023-08-06T05:31:31;99399.30;;;18.46;80.38
26436;BME280;15351;52.408;16.826;2023-08-06T05:33:58;99405.48;;;18.44;80.75
26436;BME280;15351;52.408;16.826;2023-08-06T05:36:38;99411.33;;;18.44;80.82
26436;BME280;15351;52.408;16.826;2023-08-06T05:42:20;99423.31;;;18.51;81.19
26436;BME280;15351;52.408;16.826;2023-08-06T05:44:51;99433.35;;;18.54;81.08
26436;BME280;15351;52.408;16.826;2023-08-06T05:47:17;99445.75;;;18.57;81.04
26436;BME280;15351;52.408;16.826;2023-08-06T05:52:52;99453.59;;;18.61;81.18
26436;BME280;15351;52.408;16.826;2023-08-06T05:55:39;99441.95;;;18.64;81.18
26436;BME280;15351;52.408;16.826;2023-08-06T05:58:19;99417.86;;;18.66;80.83
26436;BME280;15351;52.408;16.826;2023-08-06T06:00:58;99387.27;;;18.67;81.07
26436;BME280;15351;52.408;16.826;2023-08-06T06:03:24;99375.64;;;18.67;80.90
26436;BME280;15351;52.408;16.826;2023-08-06T06:06:01;99373.85;;;18.68;81.04
26436;BME280;15351;52.408;16.826;2023-08-06T06:08:27;99377.02;;;18.69;80.78
26436;BME280;15351;52.408;16.826;2023-08-06T06:11:00;99369.04;;;18.68;80.83
26436;BME280;15351;52.408;16.826;2023-08-06T06:13:26;99361.96;;;18.66;80.70
26436;BME280;15351;52.408;16.826;2023-08-06T06:16:17;99360.70;;;18.65;80.65
26436;BME280;15351;52.408;16.826;2023-08-06T06:18:55;99358.27;;;18.61;80.83
26436;BME280;15351;52.408;16.826;2023-08-06T06:21:29;99351.91;;;18.60;80.81
26436;BME280;15351;52.408;16.826;2023-08-06T06:24:01;99340.00;;;18.61;80.82
26436;BME280;15351;52.408;16.826;2023-08-06T06:26:40;99336.11;;;18.60;80.82
26436;BME280;15351;52.408;16.826;2023-08-06T06:29:09;99325.86;;;18.57;80.83
26436;BME280;15351;52.408;16.826;2023-08-06T06:34:39;99294.48;;;18.50;80.78
26436;BME280;15351;52.408;16.826;2023-08-06T06:37:05;99299.39;;;18.50;81.02
26436;BME280;15351;52.408;16.826;2023-08-06T06:39:46;99308.27;;;18.52;81.00
26436;BME280;15351;52.408;16.826;2023-08-06T06:42:15;99312.20;;;18.53;80.96
26436;BME280;15351;52.408;16.826;2023-08-06T06:44:59;99310.52;;;18.53;81.29
26436;BME280;15351;52.408;16.826;2023-08-06T06:47:46;99293.77;;;18.52;81.15
26436;BME280;15351;52.408;16.826;2023-08-06T06:50:22;99279.73;;;18.52;81.50
26436;BME280;15351;52.408;16.826;2023-08-06T06:53:08;99271.66;;;18.52;81.58
26436;BME280;15351;52.408;16.826;2023-08-06T06:56:00;99276.08;;;18.52;81.39
26436;BME280;15351;52.408;16.826;2023-08-06T06:58:38;99277.74;;;18.50;81.51
26436;BME280;15351;52.408;16.826;2023-08-06T07:01:29;99274.81;;;18.47;81.74
26436;BME280;15351;52.408;16.826;2023-08-06T07:03:58;99278.55;;;18.45;81.72
26436;BME280;15351;52.408;16.826;2023-08-06T07:06:25;99280.55;;;18.44;81.71
26436;BME280;15351;52.408;16.826;2023-08-06T07:08:55;99280.39;;;18.47;81.91
26436;BME280;15351;52.408;16.826;2023-08-06T07:11:22;99269.33;;;18.49;81.87
26436;BME280;15351;52.408;16.826;2023-08-06T07:13:58;99266.08;;;18.52;82.09
26436;BME280;15351;52.408;16.826;2023-08-06T07:16:31;99262.55;;;18.54;82.17
26436;BME280;15351;52.408;16.826;2023-08-06T07:19:35;99254.87;;;18.56;82.11
26436;BME280;15351;52.408;16.826;2023-08-06T07:22:04;99249.17;;;18.59;82.23
26436;BME280;15351;52.408;16.826;2023-08-06T07:24:46;99249.11;;;18.61;82.10
26436;BME280;15351;52.408;16.826;2023-08-06T07:27:18;99256.80;;;18.65;82.08
26436;BME280;15351;52.408;16.826;2023-08-06T07:29:45;99258.95;;;18.66;81.90
26436;BME280;15351;52.408;16.826;2023-08-06T07:35:45;99254.73;;;18.66;81.78
26436;BME280;15351;52.408;16.826;2023-08-06T07:38:46;99248.73;;;18.67;81.85
26436;BME280;15351;52.408;16.826;2023-08-06T07:41:23;99241.87;;;18.69;81.96
26436;BME280;15351;52.408;16.826;2023-08-06T07:44:32;99239.60;;;18.71;81.76
26436;BME280;15351;52.408;16.826;2023-08-06T07:47:45;99237.16;;;18.73;81.65
26436;BME280;15351;52.408;16.826;2023-08-06T07:50:40;99234.05;;;18.74;81.60
26436;BME280;15351;52.408;16.826;2023-08-06T07:53:23;99234.29;;;18.76;81.55
26436;BME280;15351;52.408;16.826;2023-08-06T07:55:51;99236.55;;;18.77;81.72
26436;BME280;15351;52.408;16.826;2023-08-06T07:58:21;99244.78;;;18.79;81.56
26436;BME280;15351;52.408;16.826;2023-08-06T08:05:08;99238.89;;;18.79;81.56
26436;BME280;15351;52.408;16.826;2023-08-06T08:12:15;99226.23;;;18.69;81.72
26436;BME280;15351;52.408;16.826;2023-08-06T08:15:55;99220.80;;;18.67;81.78
26436;BME280;15351;52.408;16.826;2023-08-06T08:19:44;99228.34;;;18.66;81.76
26436;BME280;15351;52.408;16.826;2023-08-06T08:22:12;99233.95;;;18.64;81.86
26436;BME280;15351;52.408;16.826;2023-08-06T08:24:39;99244.94;;;18.65;81.96
26436;BME280;15351;52.408;16.826;2023-08-06T08:27:27;99254.40;;;18.65;82.05
26436;BME280;15351;52.408;16.826;2023-08-06T08:30:09;99257.75;;;18.67;82.22
26436;BME280;15351;52.408;16.826;2023-08-06T08:32:47;99242.54;;;18.65;82.21
26436;BME280;15351;52.408;16.826;2023-08-06T08:35:41;99216.71;;;18.63;82.10
26436;BME280;15351;52.408;16.826;2023-08-06T08:38:40;99193.17;;;18.61;82.39
26436;BME280;15351;52.408;16.826;2023-08-06T08:41:06;99180.17;;;18.61;82.28
26436;BME280;15351;52.408;16.826;2023-08-06T08:43:41;99176.52;;;18.63;82.47
26436;BME280;15351;52.408;16.826;2023-08-06T08:46:43;99162.45;;;18.62;82.11
26436;BME280;15351;52.408;16.826;2023-08-06T08:49:43;99147.08;;;18.58;82.32
26436;BME280;15351;52.408;16.826;2023-08-06T08:52:14;99142.71;;;18.58;82.38
26436;BME280;15351;52.408;16.826;2023-08-06T08:54:54;99152.48;;;18.58;82.32
26436;BME280;15351;52.408;16.826;2023-08-06T08:57:26;99152.39;;;18.59;82.62
26436;BME280;15351;52.408;16.826;2023-08-06T09:00:00;99149.19;;;18.60;82.58
26436;BME280;15351;52.408;16.826;2023-08-06T09:02:30;99147.45;;;18.65;82.71
26436;BME280;15351;52.408;16.826;2023-08-06T09:05:06;99144.16;;;18.69;82.76
26436;BME280;15351;52.408;16.826;2023-08-06T09:07:56;99137.17;;;18.72;82.65
26436;BME280;15351;52.408;16.826;2023-08-06T09:10:33;99137.25;;;18.73;82.65
26436;BME280;15351;52.408;16.826;2023-08-06T09:16:15;99150.58;;;18.84;82.63
26436;BME280;15351;52.408;16.826;2023-08-06T09:18:42;99143.86;;;18.85;82.74
26436;BME280;15351;52.408;16.826;2023-08-06T09:21:13;99136.20;;;18.84;82.48
26436;BME280;15351;52.408;16.826;2023-08-06T09:23:54;99129.79;;;18.81;82.44
26436;BME280;15351;52.408;16.826;2023-08-06T09:26:52;99111.70;;;18.83;82.59
26436;BME280;15351;52.408;16.826;2023-08-06T09:29:18;99098.00;;;18.85;82.46
26436;BME280;15351;52.408;16.826;2023-08-06T09:34:16;99085.83;;;18.88;82.27
26436;BME280;15351;52.408;16.826;2023-08-06T09:36:47;99082.46;;;18.90;82.37
26436;BME280;15351;52.408;16.826;2023-08-06T09:39:18;99072.17;;;18.93;82.21
26436;BME280;15351;52.408;16.826;2023-08-06T09:41:46;99065.56;;;18.94;82.24
26436;BME280;15351;52.408;16.826;2023-08-06T09:44:20;99074.41;;;18.94;82.10
26436;BME280;15351;52.408;16.826;2023-08-06T09:47:22;99073.27;;;18.93;82.28
26436;BME280;15351;52.408;16.826;2023-08-06T09:50:08;99057.09;;;18.94;82.20
26436;BME280;15351;52.408;16.826;2023-08-06T09:52:44;99037.84;;;18.94;82.34
26436;BME280;15351;52.408;16.826;2023-08-06T09:55:15;99025.33;;;18.94;82.26
26436;BME280;15351;52.408;16.826;2023-08-06T09:57:45;99051.24;;;18.95;82.18
26436;BME280;15351;52.408;16.826;2023-08-06T10:00:26;99064.85;;;18.94;82.34
26436;BME280;15351;52.408;16.826;2023-08-06T10:02:55;99061.45;;;18.93;82.42
26436;BME280;15351;52.408;16.826;2023-08-06T10:05:26;99046.94;;;18.93;82.47
26436;BME280;15351;52.408;16.826;2023-08-06T10:07:55;99038.23;;;18.91;82.33
26436;BME280;15351;52.408;16.826;2023-08-06T10:10:24;99030.02;;;18.89;82.27
26436;BME280;15351;52.408;16.826;2023-08-06T10:28:00;99013.33;;;18.92;82.47
26436;BME280;15351;52.408;16.826;2023-08-06T10:34:10;99033.25;;;18.94;82.62
26436;BME280;15351;52.408;16.826;2023-08-06T10:36:38;99045.83;;;18.91;82.71
26436;BME280;15351;52.408;16.826;2023-08-06T10:39:04;99017.59;;;18.93;82.74
26436;BME280;15351;52.408;16.826;2023-08-06T10:41:53;98967.48;;;18.96;82.88
26436;BME280;15351;52.408;16.826;2023-08-06T10:44:24;98981.66;;;18.97;82.86
26436;BME280;15351;52.408;16.826;2023-08-06T10:47:38;99007.98;;;18.99;82.94
26436;BME280;15351;52.408;16.826;2023-08-06T10:50:49;99015.89;;;18.98;82.96
26436;BME280;15351;52.408;16.826;2023-08-06T10:53:59;98996.11;;;19.00;82.69
26436;BME280;15351;52.408;16.826;2023-08-06T11:00:29;98986.95;;;19.03;82.66
26436;BME280;15351;52.408;16.826;2023-08-06T11:04:08;98990.64;;;19.01;82.56
26436;BME280;15351;52.408;16.826;2023-08-06T11:10:36;98993.13;;;18.95;82.66
26436;BME280;15351;52.408;16.826;2023-08-06T11:13:29;99001.40;;;18.98;82.49
26436;BME280;15351;52.408;16.826;2023-08-06T11:16:03;98999.70;;;18.98;82.45
26436;BME280;15351;52.408;16.826;2023-08-06T11:18:32;99005.73;;;18.98;82.40
26436;BME280;15351;52.408;16.826;2023-08-06T11:21:03;99004.52;;;18.96;82.52
26436;BME280;15351;52.408;16.826;2023-08-06T11:24:01;99007.08;;;18.96;82.45
26436;BME280;15351;52.408;16.826;2023-08-06T11:26:31;99014.73;;;18.96;82.66
26436;BME280;15351;52.408;16.826;2023-08-06T11:29:40;99028.64;;;18.99;82.83
26436;BME280;15351;52.408;16.826;2023-08-06T11:32:21;99039.16;;;19.03;82.56
26436;BME280;15351;52.408;16.826;2023-08-06T11:34:59;99040.17;;;19.08;82.55
26436;BME280;15351;52.408;16.826;2023-08-06T11:37:57;99005.88;;;19.11;82.31
26436;BME280;15351;52.408;16.826;2023-08-06T11:40:32;98932.16;;;19.12;82.34
26436;BME280;15351;52.408;16.826;2023-08-06T11:43:19;98906.17;;;19.10;82.22
26436;BME280;15351;52.408;16.826;2023-08-06T11:52:16;99001.14;;;19.01;82.53
26436;BME280;15351;52.408;16.826;2023-08-06T11:55:03;99001.98;;;19.02;82.48
26436;BME280;15351;52.408;16.826;2023-08-06T12:00:30;99017.45;;;19.02;82.69
26436;BME280;15351;52.408;16.826;2023-08-06T12:03:04;99018.40;;;19.05;82.82
26436;BME280;15351;52.408;16.826;2023-08-06T12:05:55;99024.80;;;19.07;82.83
26436;BME280;15351;52.408;16.826;2023-08-06T12:08:54;99039.13;;;19.08;82.80
26436;BME280;15351;52.408;16.826;2023-08-06T12:11:28;99043.78;;;19.08;82.75
26436;BME280;15351;52.408;16.826;2023-08-06T12:14:02;99037.33;;;19.11;82.95
26436;BME280;15351;52.408;16.826;2023-08-06T12:16:33;99028.16;;;19.15;83.02
26436;BME280;15351;52.408;16.826;2023-08-06T12:19:10;99003.63;;;19.20;83.17
26436;BME280;15351;52.408;16.826;2023-08-06T12:21:48;98992.36;;;19.22;82.92
26436;BME280;15351;52.408;16.826;2023-08-06T12:24:24;98985.56;;;19.24;82.98
26436;BME280;15351;52.408;16.826;2023-08-06T12:27:16;98979.13;;;19.27;83.06
26436;BME280;15351;52.408;16.826;2023-08-06T12:29:48;98961.41;;;19.30;83.11
26436;BME280;15351;52.408;16.826;2023-08-06T12:32:20;98933.30;;;19.30;83.19
26436;BME280;15351;52.408;16.826;2023-08-06T12:34:57;98914.71;;;19.35;83.36
26436;BME280;15351;52.408;16.826;2023-08-06T12:37:41;98912.60;;;19.40;83.01
26436;BME280;15351;52.408;16.826;2023-08-06T12:40:19;98919.69;;;19.45;83.12
26436;BME280;15351;52.408;16.826;2023-08-06T12:43:00;98922.15;;;19.50;83.09
26436;BME280;15351;52.408;16.826;2023-08-06T12:45:49;98918.71;;;19.53;83.12
26436;BME280;15351;52.408;16.826;2023-08-06T12:48:49;98923.03;;;19.53;82.95
26436;BME280;15351;52.408;16.826;2023-08-06T12:51:21;98931.83;;;19.58;82.89
26436;BME280;15351;52.408;16.826;2023-08-06T12:54:19;98926.36;;;19.62;82.74
26436;BME280;15351;52.408;16.826;2023-08-06T12:57:18;98917.00;;;19.61;82.70
26436;BME280;15351;52.408;16.826;2023-08-06T12:59:47;98913.23;;;19.61;82.60
26436;BME280;15351;52.408;16.826;2023-08-06T13:02:14;98915.80;;;19.60;82.65
26436;BME280;15351;52.408;16.826;2023-08-06T13:04:46;98922.69;;;19.58;82.36
26436;BME280;15351;52.408;16.826;2023-08-06T13:07:25;98923.45;;;19.59;82.39
26436;BME280;15351;52.408;16.826;2023-08-06T13:10:09;98921.36;;;19.57;82.40
26436;BME280;15351;52.408;16.826;2023-08-06T13:13:02;98913.33;;;19.58;82.38
26436;BME280;15351;52.408;16.826;2023-08-06T13:15:39;98910.52;;;19.63;82.35
26436;BME280;15351;52.408;16.826;2023-08-06T13:18:09;98905.00;;;19.66;82.30
26436;BME280;15351;52.408;16.826;2023-08-06T13:20:44;98909.48;;;19.67;82.28
26436;BME280;15351;52.408;16.826;2023-08-06T13:23:19;98908.46;;;19.69;82.18
26436;BME280;15351;52.408;16.826;2023-08-06T13:25:45;98907.92;;;19.70;82.08
26436;BME280;15351;52.408;16.826;2023-08-06T13:28:15;98907.38;;;19.70;81.69
26436;BME280;15351;52.408;16.826;2023-08-06T13:30:42;98913.76;;;19.68;81.46
26436;BME280;15351;52.408;16.826;2023-08-06T13:33:12;98913.87;;;19.67;81.42
26436;BME280;15351;52.408;16.826;2023-08-06T13:35:39;98912.34;;;19.68;81.53
26436;BME280;15351;52.408;16.826;2023-08-06T13:38:10;98915.78;;;19.67;81.44
26436;BME280;15351;52.408;16.826;2023-08-06T13:40:48;98918.84;;;19.64;81.27
26436;BME280;15351;52.408;16.826;2023-08-06T13:46:43;98932.38;;;19.61;81.23
26436;BME280;15351;52.408;16.826;2023-08-06T13:53:32;98926.91;;;19.58;81.27
26436;BME280;15351;52.408;16.826;2023-08-06T13:56:08;98927.22;;;19.57;81.56
26436;BME280;15351;52.408;16.826;2023-08-06T13:59:09;98923.94;;;19.56;81.38
26436;BME280;15351;52.408;16.826;2023-08-06T14:01:51;98919.64;;;19.52;81.27
26436;BME280;15351;52.408;16.826;2023-08-06T14:04:37;98916.02;;;19.50;81.40
26436;BME280;15351;52.408;16.826;2023-08-06T14:07:33;98911.64;;;19.46;81.42
26436;BME280;15351;52.408;16.826;2023-08-06T14:10:41;98913.66;;;19.47;81.58
26436;BME280;15351;52.408;16.826;2023-08-06T14:13:54;98909.73;;;19.50;81.46
26436;BME280;15351;52.408;16.826;2023-08-06T14:17:01;98906.40;;;19.52;81.37
26436;BME280;15351;52.408;16.826;2023-08-06T14:19:48;98902.63;;;19.53;81.44
26436;BME280;15351;52.408;16.826;2023-08-06T14:22:25;98899.50;;;19.54;81.39
26436;BME280;15351;52.408;16.826;2023-08-06T14:25:12;98900.77;;;19.52;81.25
26436;BME280;15351;52.408;16.826;2023-08-06T14:30:53;98905.56;;;19.46;81.40
26436;BME280;15351;52.408;16.826;2023-08-06T14:33:46;98902.12;;;19.46;81.60
26436;BME280;15351;52.408;16.826;2023-08-06T14:36:13;98891.94;;;19.48;81.64
26436;BME280;15351;52.408;16.826;2023-08-06T14:38:50;98885.42;;;19.48;81.50
26436;BME280;15351;52.408;16.826;2023-08-06T14:41:40;98879.74;;;19.50;81.68
26436;BME280;15351;52.408;16.826;2023-08-06T14:44:10;98887.08;;;19.50;81.47
26436;BME280;15351;52.408;16.826;2023-08-06T14:46:40;98893.48;;;19.48;81.35
26436;BME280;15351;52.408;16.826;2023-08-06T14:49:37;98900.10;;;19.46;81.41
26436;BME280;15351;52.408;16.826;2023-08-06T14:55:56;98914.55;;;19.50;81.51
26436;BME280;15351;52.408;16.826;2023-08-06T14:58:41;98913.61;;;19.49;81.45
26436;BME280;15351;52.408;16.826;2023-08-06T15:01:21;98917.50;;;19.49;81.37
26436;BME280;15351;52.408;16.826;2023-08-06T15:03:53;98910.33;;;19.48;81.24
26436;BME280;15351;52.408;16.826;2023-08-06T15:06:36;98905.23;;;19.50;81.33
26436;BME280;15351;52.408;16.826;2023-08-06T15:09:23;98903.21;;;19.49;81.14
26436;BME280;15351;52.408;16.826;2023-08-06T15:12:10;98909.77;;;19.46;81.13
26436;BME280;15351;52.408;16.826;2023-08-06T15:14:54;98918.59;;;19.42;81.25
26436;BME280;15351;52.408;16.826;2023-08-06T15:21:31;98943.45;;;19.39;81.10
26436;BME280;15351;52.408;16.826;2023-08-06T15:24:43;98946.10;;;19.42;81.13